Time;durP1;ratioP1;P1;durP2;ratioP2;P2;SDS_P1;SDS_P2;PMS_P1;PMS_P2;Temp;Humidity;BMP_temperature;BMP_pressure;BME280_temperature;BME280_humidity;BME280_pressure;Samples;Min_cycle;Max_cycle;Signal;HPM_P1;HPM_P2
2021/05/01 00:00:24;;;;;;;38.67;32.73;;;7.10;99.90;;;;;;5010283;28;20468;-66
2021/05/01 00:02:49;;;;;;;40.00;28.80;;;7.10;99.90;;;;;;5010615;28;20994;-66
2021/05/01 00:05:15;;;;;;;37.20;30.30;;;7.10;99.90;;;;;;5009389;28;20198;-66
2021/05/01 00:07:40;;;;;;;38.37;31.10;;;7.10;99.90;;;;;;5009786;28;20182;-66
2021/05/01 00:10:07;;;;;;;41.00;32.63;;;7.10;99.90;;;;;;5010322;28;20187;-66
2021/05/01 00:12:33;;;;;;;38.40;31.77;;;7.10;99.90;;;;;;5011011;28;20178;-66
2021/05/01 00:14:59;;;;;;;36.83;29.97;;;7.20;99.90;;;;;;5010262;28;20449;-66
2021/05/01 00:17:25;;;;;;;34.90;29.40;;;7.30;99.90;;;;;;5010460;28;20429;-66
2021/05/01 00:19:50;;;;;;;40.33;31.80;;;7.20;99.90;;;;;;5010069;28;20592;-66
2021/05/01 00:22:16;;;;;;;39.53;31.97;;;7.20;99.90;;;;;;5010198;28;20202;-66
2021/05/01 00:24:41;;;;;;;41.27;31.47;;;7.30;99.90;;;;;;5009605;28;20684;-66
2021/05/01 00:27:07;;;;;;;37.97;31.20;;;7.40;99.90;;;;;;5010474;28;20182;-66
2021/05/01 00:29:32;;;;;;;37.07;29.40;;;7.40;99.90;;;;;;5009747;28;20561;-66
2021/05/01 00:31:58;;;;;;;36.30;30.30;;;7.50;99.90;;;;;;5010247;28;20718;-66
2021/05/01 00:34:23;;;;;;;40.50;31.27;;;7.60;99.90;;;;;;5010402;28;20613;-66
2021/05/01 00:36:49;;;;;;;41.03;33.50;;;7.60;99.90;;;;;;5010275;28;20178;-66
2021/05/01 00:39:14;;;;;;;35.47;30.10;;;7.60;99.90;;;;;;5009608;28;20720;-66
2021/05/01 00:41:40;;;;;;;36.33;30.77;;;7.60;99.90;;;;;;5010515;28;20522;-66
2021/05/01 00:44:07;;;;;;;37.50;31.73;;;7.70;99.90;;;;;;5011623;28;20775;-66
2021/05/01 00:46:32;;;;;;;40.93;33.13;;;7.60;99.90;;;;;;5014264;28;20178;-66
2021/05/01 00:48:58;;;;;;;41.43;32.00;;;7.60;99.90;;;;;;5014148;28;20459;-66
2021/05/01 00:51:24;;;;;;;39.67;32.60;;;7.70;99.90;;;;;;5013393;28;20270;-66
2021/05/01 00:53:49;;;;;;;36.57;29.83;;;7.70;99.90;;;;;;5013316;28;20167;-66
2021/05/01 00:56:16;;;;;;;35.10;29.23;;;7.70;99.90;;;;;;5014075;28;20612;-66
2021/05/01 00:58:42;;;;;;;35.73;28.60;;;7.80;99.90;;;;;;5014083;28;20309;-66
2021/05/01 01:03:34;;;;;;;36.67;31.03;;;7.80;99.90;;;;;;5013350;28;20442;-66
2021/05/01 01:06:00;;;;;;;38.20;31.20;;;7.70;99.90;;;;;;5013503;28;20225;-66
2021/05/01 01:08:26;;;;;;;37.30;30.00;;;7.70;99.90;;;;;;5012908;28;20469;-66
2021/05/01 01:10:52;;;;;;;38.77;31.37;;;7.60;99.90;;;;;;5013220;28;20866;-66
2021/05/01 01:13:19;;;;;;;36.50;30.27;;;7.60;99.90;;;;;;5013978;28;20198;-66
2021/05/01 01:15:44;;;;;;;35.77;28.30;;;7.60;99.90;;;;;;5013609;28;20821;-66
2021/05/01 01:18:10;;;;;;;37.43;29.53;;;7.70;99.90;;;;;;5013269;28;20445;-66
2021/05/01 01:20:36;;;;;;;37.20;31.00;;;7.80;99.90;;;;;;5013654;28;20182;-66
2021/05/01 01:23:01;;;;;;;34.90;29.63;;;7.90;99.90;;;;;;5012938;28;20664;-66
2021/05/01 01:25:28;;;;;;;38.47;30.23;;;7.90;99.90;;;;;;5013293;28;20574;-66
2021/05/01 01:27:53;;;;;;;33.33;28.47;;;7.90;99.90;;;;;;5013556;28;20207;-66
2021/05/01 01:30:25;;;;;;;36.13;30.37;;;7.90;99.90;;;;;;5012706;28;20441;-66
2021/05/01 01:32:51;;;;;;;34.90;28.43;;;8.00;99.90;;;;;;5013552;28;20179;-66
2021/05/01 01:35:17;;;;;;;33.83;29.50;;;7.90;99.90;;;;;;5013307;28;20464;-66
2021/05/01 01:37:45;;;;;;;35.20;29.50;;;7.80;99.90;;;;;;5013438;28;20955;-66
2021/05/01 01:40:12;;;;;;;37.17;30.57;;;7.70;99.90;;;;;;5012955;28;20943;-66
2021/05/01 01:42:40;;;;;;;34.87;30.70;;;7.80;99.90;;;;;;5012962;28;20440;-66
2021/05/01 01:45:07;;;;;;;43.47;32.53;;;7.90;99.90;;;;;;5013059;28;20544;-66
2021/05/01 01:47:32;;;;;;;38.10;30.10;;;7.90;99.90;;;;;;5013254;28;20932;-66
2021/05/01 01:49:58;;;;;;;39.87;30.93;;;7.90;99.90;;;;;;4998361;28;20474;-66
2021/05/01 01:52:24;;;;;;;38.70;30.30;;;7.80;99.90;;;;;;5009511;28;20179;-66
2021/05/01 01:54:49;;;;;;;39.50;31.77;;;7.70;99.90;;;;;;5012807;28;20198;-66
2021/05/01 01:57:15;;;;;;;38.60;31.73;;;7.70;99.90;;;;;;5012500;28;20254;-66
2021/05/01 01:59:40;;;;;;;40.10;31.30;;;7.70;99.90;;;;;;5012882;28;20186;-66
2021/05/01 02:02:06;;;;;;;39.10;33.27;;;7.90;99.90;;;;;;5012898;28;20179;-66
2021/05/01 02:04:31;;;;;;;38.13;31.73;;;8.00;99.90;;;;;;5012281;28;20283;-66
2021/05/01 02:06:57;;;;;;;36.17;30.37;;;8.00;99.90;;;;;;5013032;28;20660;-66
2021/05/01 02:09:22;;;;;;;41.40;32.07;;;8.00;99.90;;;;;;5012303;28;20601;-66
2021/05/01 02:11:48;;;;;;;36.53;30.30;;;8.00;99.90;;;;;;5012563;28;20205;-66
2021/05/01 02:14:13;;;;;;;42.53;31.70;;;8.00;99.90;;;;;;5012855;28;20179;-66
2021/05/01 02:16:39;;;;;;;35.37;30.73;;;8.00;99.90;;;;;;5012886;28;20241;-66
2021/05/01 02:19:04;;;;;;;35.33;30.50;;;8.00;99.90;;;;;;5012020;28;20186;-66
2021/05/01 02:21:30;;;;;;;41.80;31.20;;;8.10;99.90;;;;;;5013415;28;20193;-66
2021/05/01 02:23:56;;;;;;;38.07;30.00;;;8.10;99.90;;;;;;5012141;28;20445;-67
2021/05/01 02:26:22;;;;;;;37.10;30.90;;;8.20;99.90;;;;;;5011837;28;20584;-66
2021/05/01 02:28:47;;;;;;;39.07;31.27;;;8.10;99.90;;;;;;5012370;28;20612;-67
2021/05/01 02:31:13;;;;;;;40.27;31.30;;;8.10;99.90;;;;;;5012074;28;20477;-66
2021/05/01 02:33:38;;;;;;;38.57;31.80;;;8.10;99.90;;;;;;5012529;28;20387;-66
2021/05/01 02:36:04;;;;;;;36.83;31.90;;;8.10;99.90;;;;;;5012144;28;20305;-67
2021/05/01 02:38:30;;;;;;;39.87;32.93;;;8.10;99.90;;;;;;5012069;28;20225;-67
2021/05/01 02:40:56;;;;;;;38.33;31.77;;;8.10;99.90;;;;;;5009381;28;20446;-67
2021/05/01 02:43:21;;;;;;;38.50;31.37;;;8.10;99.90;;;;;;5012172;28;20233;-67
2021/05/01 02:45:47;;;;;;;36.73;31.63;;;8.00;99.90;;;;;;5011842;28;20222;-66
2021/05/01 02:48:12;;;;;;;39.70;32.50;;;8.00;99.90;;;;;;5011635;28;20724;-66
2021/05/01 02:50:38;;;;;;;39.23;31.80;;;8.00;99.90;;;;;;5012207;28;20455;-67
2021/05/01 02:53:04;;;;;;;39.27;32.40;;;8.00;99.90;;;;;;5003896;28;20195;-67
2021/05/01 02:55:31;;;;;;;36.37;29.37;;;8.00;99.90;;;;;;5003811;28;20453;-67
2021/05/01 02:57:57;;;;;;;39.17;31.43;;;8.00;99.90;;;;;;5011071;28;20805;-67
2021/05/01 03:00:25;;;;;;;37.33;30.30;;;8.00;99.90;;;;;;5011292;28;20442;-66
2021/05/01 03:02:51;;;;;;;34.17;28.23;;;8.10;99.90;;;;;;5011159;28;20660;-66
2021/05/01 03:05:17;;;;;;;38.77;30.70;;;8.00;99.90;;;;;;5011492;28;20462;-66
2021/05/01 03:07:43;;;;;;;39.20;30.30;;;8.10;99.90;;;;;;5010467;28;20598;-66
2021/05/01 03:10:12;;;;;;;34.60;30.60;;;8.10;99.90;;;;;;5011063;28;20442;-67
2021/05/01 03:12:38;;;;;;;35.00;29.97;;;8.10;99.90;;;;;;4996730;28;20792;-67
2021/05/01 03:15:06;;;;;;;44.70;33.90;;;8.10;99.90;;;;;;5011068;28;20454;-67
2021/05/01 03:17:31;;;;;;;36.47;30.03;;;8.10;99.90;;;;;;5011528;28;20186;-67
2021/05/01 03:19:57;;;;;;;42.43;33.47;;;8.00;99.90;;;;;;5011269;28;20973;-67
2021/05/01 03:22:23;;;;;;;41.47;33.50;;;8.10;99.90;;;;;;5009785;28;20178;-67
2021/05/01 03:24:48;;;;;;;37.97;29.97;;;8.00;99.90;;;;;;5011435;28;20221;-66
2021/05/01 03:27:14;;;;;;;38.60;31.40;;;8.10;99.90;;;;;;5010541;28;20430;-67
2021/05/01 03:29:39;;;;;;;45.90;34.30;;;8.00;99.90;;;;;;5011259;28;20190;-68
2021/05/01 03:32:05;;;;;;;42.23;31.37;;;8.00;99.90;;;;;;5011070;28;20178;-67
2021/05/01 03:34:31;;;;;;;38.00;31.50;;;8.00;99.90;;;;;;5011333;28;20282;-67
2021/05/01 03:36:57;;;;;;;42.77;33.07;;;8.10;99.90;;;;;;5010934;28;20438;-66
2021/05/01 03:39:23;;;;;;;38.97;31.30;;;8.10;99.90;;;;;;5010340;28;20187;-66
2021/05/01 03:41:49;;;;;;;40.43;31.87;;;8.10;99.90;;;;;;5010680;28;20657;-66
2021/05/01 03:44:15;;;;;;;41.47;33.90;;;8.20;99.90;;;;;;5010370;28;20225;-67
2021/05/01 03:46:40;;;;;;;44.97;35.47;;;8.10;99.90;;;;;;5010819;28;20837;-67
2021/05/01 03:49:06;;;;;;;44.10;36.67;;;8.20;99.90;;;;;;5010954;28;20234;-67
2021/05/01 03:51:32;;;;;;;44.63;35.20;;;8.10;99.90;;;;;;5010337;28;20178;-67
2021/05/01 03:53:57;;;;;;;48.60;37.37;;;8.10;99.90;;;;;;5007836;28;20210;-67
2021/05/01 03:56:23;;;;;;;46.93;40.13;;;8.10;99.90;;;;;;5011141;28;20524;-66
2021/05/01 03:58:49;;;;;;;45.87;34.87;;;8.10;99.90;;;;;;5010553;28;20549;-67
2021/05/01 04:01:15;;;;;;;46.57;36.60;;;8.10;99.90;;;;;;5009030;28;20182;-66
2021/05/01 04:03:41;;;;;;;45.30;37.70;;;8.20;99.90;;;;;;5010530;28;20809;-66
2021/05/01 04:06:06;;;;;;;43.33;34.90;;;8.10;99.90;;;;;;5010802;28;20210;-67
2021/05/01 04:08:32;;;;;;;50.13;36.90;;;8.10;99.90;;;;;;5010374;28;20566;-66
2021/05/01 04:10:58;;;;;;;42.73;34.57;;;8.10;99.90;;;;;;5010631;28;20171;-67
2021/05/01 04:13:24;;;;;;;50.27;38.70;;;8.10;99.90;;;;;;5010483;28;20261;-66
2021/05/01 04:15:50;;;;;;;46.83;37.50;;;8.10;99.90;;;;;;5010697;28;20540;-66
2021/05/01 04:18:15;;;;;;;47.67;37.20;;;8.20;99.90;;;;;;5008712;28;20175;-66
2021/05/01 04:20:41;;;;;;;48.60;36.73;;;8.20;99.90;;;;;;5010440;28;20178;-67
2021/05/01 04:23:08;;;;;;;48.93;36.23;;;8.30;99.90;;;;;;5010319;28;20185;-67
2021/05/01 04:25:37;;;;;;;45.50;36.17;;;8.30;99.90;;;;;;5010586;28;20460;-67
2021/05/01 04:28:04;;;;;;;50.07;38.50;;;8.20;99.90;;;;;;5009881;28;20463;-66
2021/05/01 04:30:30;;;;;;;49.47;35.80;;;8.10;99.90;;;;;;5004205;28;20435;-66
2021/05/01 04:32:55;;;;;;;45.50;36.47;;;8.10;99.90;;;;;;5009985;28;20466;-67
2021/05/01 04:35:21;;;;;;;47.27;35.10;;;8.20;99.90;;;;;;5010332;28;20550;-66
2021/05/01 04:37:47;;;;;;;47.57;36.00;;;8.20;99.90;;;;;;5010657;28;20171;-67
2021/05/01 04:40:13;;;;;;;51.67;35.83;;;8.30;99.90;;;;;;5009637;28;20445;-67
2021/05/01 04:42:46;;;;;;;47.90;37.43;;;8.30;99.90;;;;;;5009881;28;20178;-67
2021/05/01 04:45:12;;;;;;;46.87;36.60;;;8.30;99.90;;;;;;5009906;28;20465;-66
2021/05/01 04:47:38;;;;;;;49.47;37.00;;;8.30;99.90;;;;;;5009402;28;20947;-67
2021/05/01 04:50:04;;;;;;;52.43;39.73;;;8.40;99.90;;;;;;5009988;28;20468;-67
2021/05/01 04:52:31;;;;;;;47.07;37.60;;;8.40;99.90;;;;;;5009709;28;20863;-66
2021/05/01 04:54:58;;;;;;;50.40;38.43;;;8.40;99.90;;;;;;5009876;28;20452;-67
2021/05/01 04:57:23;;;;;;;50.90;40.90;;;8.40;99.90;;;;;;5010226;28;20940;-67
2021/05/01 04:59:49;;;;;;;51.07;39.33;;;8.50;99.90;;;;;;5010203;28;20524;-66
2021/05/01 05:02:14;;;;;;;49.47;38.67;;;8.60;99.90;;;;;;5009971;28;20175;-67
2021/05/01 05:04:40;;;;;;;44.53;36.47;;;8.60;99.90;;;;;;5009517;28;20310;-66
2021/05/01 05:07:05;;;;;;;46.13;36.27;;;8.70;99.90;;;;;;5009988;28;20679;-67
2021/05/01 05:09:31;;;;;;;45.33;37.90;;;8.60;99.90;;;;;;5009670;28;20199;-66
2021/05/01 05:11:56;;;;;;;47.60;37.87;;;8.60;99.90;;;;;;5005552;28;20187;-67
2021/05/01 05:14:22;;;;;;;45.20;36.83;;;8.60;99.90;;;;;;5022276;28;20599;-67
2021/05/01 05:16:47;;;;;;;48.43;37.30;;;8.70;99.90;;;;;;5014384;28;20217;-67
2021/05/01 05:19:13;;;;;;;47.67;37.90;;;8.60;99.90;;;;;;5015594;28;20175;-67
2021/05/01 05:21:38;;;;;;;51.90;38.80;;;8.60;99.90;;;;;;5010244;28;20183;-66
2021/05/01 05:24:04;;;;;;;47.63;36.27;;;8.70;99.90;;;;;;5010057;28;20182;-66
2021/05/01 05:26:31;;;;;;;52.27;41.10;;;8.70;99.90;;;;;;5009067;28;20260;-67
2021/05/01 05:28:56;;;;;;;47.60;38.67;;;8.60;99.90;;;;;;5010313;28;20619;-67
2021/05/01 05:31:22;;;;;;;49.37;36.93;;;8.70;99.90;;;;;;5012869;28;20994;-67
2021/05/01 05:33:47;;;;;;;52.03;39.10;;;8.70;99.90;;;;;;5013861;28;20676;-67
2021/05/01 05:36:13;;;;;;;52.00;38.10;;;8.70;99.90;;;;;;5013241;28;20195;-65
2021/05/01 05:38:39;;;;;;;51.13;38.40;;;8.60;99.90;;;;;;5013909;28;20182;-67
2021/05/01 05:41:04;;;;;;;48.03;36.00;;;8.60;99.90;;;;;;5012341;28;20193;-67
2021/05/01 05:43:33;;;;;;;46.37;35.23;;;8.60;99.90;;;;;;5013855;28;20182;-67
2021/05/01 05:45:58;;;;;;;47.50;37.10;;;8.60;99.90;;;;;;5012617;28;20203;-67
2021/05/01 05:48:24;;;;;;;49.63;37.67;;;8.60;99.90;;;;;;5013418;28;20591;-66
2021/05/01 05:50:49;;;;;;;47.00;35.40;;;8.70;99.90;;;;;;5012535;28;20546;-67
2021/05/01 05:53:15;;;;;;;51.07;37.30;;;8.70;99.90;;;;;;5012928;28;20257;-67
2021/05/01 05:55:40;;;;;;;47.73;35.90;;;8.70;99.90;;;;;;5012675;28;20206;-67
2021/05/01 05:58:06;;;;;;;49.23;37.13;;;8.70;99.90;;;;;;5012804;28;20183;-66
2021/05/01 06:00:31;;;;;;;46.10;34.93;;;8.60;99.90;;;;;;5013676;28;20179;-66
2021/05/01 06:03:00;;;;;;;55.17;40.17;;;8.60;99.90;;;;;;5013046;28;20219;-67
2021/05/01 06:05:36;;;;;;;45.53;37.77;;;8.60;99.90;;;;;;5012766;28;20233;-66
2021/05/01 06:08:07;;;;;;;51.23;39.73;;;8.70;99.90;;;;;;5012534;28;21025;-67
2021/05/01 06:10:34;;;;;;;48.70;37.27;;;8.70;99.90;;;;;;5013067;28;20426;-67
2021/05/01 06:13:03;;;;;;;51.20;39.10;;;8.70;99.90;;;;;;5007221;28;21008;-66
2021/05/01 06:15:29;;;;;;;45.33;36.27;;;8.90;99.90;;;;;;5012545;28;20457;-66
2021/05/01 06:18:01;;;;;;;46.73;36.03;;;9.00;99.90;;;;;;5012521;28;20430;-67
2021/05/01 06:20:28;;;;;;;44.53;36.30;;;9.00;99.90;;;;;;5012418;28;20488;-66
2021/05/01 06:22:55;;;;;;;45.30;36.10;;;9.00;99.90;;;;;;5012786;28;20569;-67
2021/05/01 06:25:21;;;;;;;45.47;34.77;;;9.10;99.90;;;;;;5012273;28;20449;-66
2021/05/01 06:27:51;;;;;;;41.17;33.97;;;9.20;99.90;;;;;;5012606;28;20436;-67
2021/05/01 06:30:17;;;;;;;43.10;35.50;;;9.20;99.90;;;;;;5013841;28;20919;-66
2021/05/01 06:32:43;;;;;;;44.07;35.07;;;9.40;99.90;;;;;;5013680;28;20444;-67
2021/05/01 06:35:09;;;;;;;36.83;31.63;;;9.40;99.90;;;;;;5012283;28;20446;-66
2021/05/01 06:37:39;;;;;;;42.70;34.10;;;9.30;99.90;;;;;;5012438;28;20480;-66
2021/05/01 06:40:08;;;;;;;49.33;36.50;;;9.10;99.90;;;;;;5012631;28;20210;-67
2021/05/01 06:42:39;;;;;;;43.70;36.03;;;9.10;99.90;;;;;;5011809;28;20461;-67
2021/05/01 06:45:10;;;;;;;39.07;32.10;;;9.20;99.90;;;;;;5012606;28;20485;-66
2021/05/01 06:47:52;;;;;;;42.80;34.97;;;9.10;99.90;;;;;;5012538;28;20441;-66
2021/05/01 06:50:26;;;;;;;42.90;32.40;;;9.20;99.90;;;;;;5011802;28;20997;-66
2021/05/01 06:52:52;;;;;;;52.90;40.43;;;9.20;99.90;;;;;;5012819;28;20486;-66
2021/05/01 06:55:20;;;;;;;43.57;35.00;;;9.20;99.90;;;;;;5012356;28;20453;-68
2021/05/01 06:57:51;;;;;;;40.40;33.40;;;9.20;99.90;;;;;;5012488;28;20786;-66
2021/05/01 07:00:21;;;;;;;45.40;34.00;;;9.20;99.90;;;;;;5011457;28;20430;-66
2021/05/01 07:02:49;;;;;;;45.10;35.40;;;9.30;99.90;;;;;;5012464;28;21045;-66
2021/05/01 07:05:21;;;;;;;39.63;33.37;;;9.30;99.90;;;;;;5011908;28;20434;-66
2021/05/01 07:07:47;;;;;;;39.57;32.93;;;9.40;99.90;;;;;;5015890;28;20441;-65
2021/05/01 07:10:14;;;;;;;39.90;32.73;;;9.50;99.90;;;;;;5011626;28;20580;-67
2021/05/01 07:12:41;;;;;;;39.73;33.27;;;9.50;99.90;;;;;;5012221;28;20468;-66
2021/05/01 07:15:09;;;;;;;35.40;30.33;;;9.50;99.90;;;;;;5011774;28;20798;-67
2021/05/01 07:17:36;;;;;;;36.27;31.30;;;9.40;99.90;;;;;;5011959;28;20438;-67
2021/05/01 07:20:04;;;;;;;43.13;34.73;;;9.50;99.90;;;;;;5011401;28;20442;-66
2021/05/01 07:22:29;;;;;;;38.77;33.23;;;9.60;99.90;;;;;;5011725;28;20438;-66
2021/05/01 07:24:56;;;;;;;40.03;34.40;;;9.60;99.90;;;;;;5006877;28;20554;-66
2021/05/01 07:27:35;;;;;;;38.50;29.47;;;9.80;99.90;;;;;;5020747;28;20262;-66
2021/05/01 07:30:05;;;;;;;38.30;32.57;;;9.80;99.90;;;;;;5019317;28;20456;-66
2021/05/01 07:32:34;;;;;;;37.67;30.63;;;9.70;99.90;;;;;;5011496;28;20437;-66
2021/05/01 07:35:04;;;;;;;40.40;30.27;;;9.70;99.90;;;;;;5011400;28;20503;-67
2021/05/01 07:37:31;;;;;;;35.93;30.40;;;9.70;99.90;;;;;;5011432;28;20939;-66
2021/05/01 07:40:00;;;;;;;37.00;30.97;;;9.80;99.90;;;;;;5011206;28;20434;-67
2021/05/01 07:42:27;;;;;;;33.37;28.23;;;9.80;99.90;;;;;;5015603;28;20430;-66
2021/05/01 07:44:55;;;;;;;36.20;29.00;;;9.70;99.90;;;;;;5011202;28;20495;-66
2021/05/01 07:47:23;;;;;;;33.80;29.70;;;9.70;99.90;;;;;;5011358;28;20440;-66
2021/05/01 07:49:52;;;;;;;34.93;30.10;;;9.80;99.90;;;;;;5010660;28;20465;-66
2021/05/01 07:52:18;;;;;;;35.17;30.20;;;9.80;99.90;;;;;;5010965;28;20436;-66
2021/05/01 07:54:44;;;;;;;33.33;28.47;;;9.80;99.90;;;;;;5010527;28;20936;-66
2021/05/01 07:57:11;;;;;;;32.47;28.50;;;10.10;99.90;;;;;;5010808;28;20437;-66
2021/05/01 07:59:36;;;;;;;43.30;35.67;;;10.30;99.90;;;;;;5010989;28;20445;-67
2021/05/01 08:02:05;;;;;;;33.60;28.77;;;10.30;99.90;;;;;;5004787;28;20442;-66
2021/05/01 08:04:32;;;;;;;34.07;28.80;;;10.30;99.90;;;;;;5017785;28;20274;-66
2021/05/01 08:06:58;;;;;;;32.40;28.33;;;10.30;99.90;;;;;;5012685;28;20436;-67
2021/05/01 08:09:24;;;;;;;35.40;26.80;;;10.20;99.90;;;;;;5010562;28;20461;-66
2021/05/01 08:11:50;;;;;;;31.30;27.27;;;10.20;99.90;;;;;;5011054;28;20869;-65
2021/05/01 08:14:16;;;;;;;33.33;29.00;;;10.20;99.90;;;;;;5011450;28;20179;-65
2021/05/01 08:16:41;;;;;;;34.00;29.83;;;10.30;99.90;;;;;;5011203;28;20179;-66
2021/05/01 08:19:07;;;;;;;31.87;27.80;;;10.30;99.90;;;;;;5010563;28;20183;-66
2021/05/01 08:21:35;;;;;;;31.63;26.10;;;10.40;99.90;;;;;;5011842;28;20182;-65
2021/05/01 08:24:01;;;;;;;31.77;27.00;;;10.20;99.90;;;;;;5023558;28;20182;-66
2021/05/01 08:26:27;;;;;;;31.00;26.90;;;10.40;99.90;;;;;;5010974;28;20589;-65
2021/05/01 08:28:53;;;;;;;30.90;27.57;;;10.60;99.90;;;;;;4997745;28;20533;-66
2021/05/01 08:31:19;;;;;;;31.13;27.73;;;10.60;99.90;;;;;;5008120;28;20221;-66
2021/05/01 08:33:44;;;;;;;30.03;26.70;;;10.60;99.90;;;;;;5010361;28;20190;-66
2021/05/01 08:36:10;;;;;;;31.67;26.93;;;10.60;99.90;;;;;;5013791;28;20199;-66
2021/05/01 08:38:38;;;;;;;31.40;28.17;;;10.60;99.90;;;;;;5010287;28;20175;-66
2021/05/01 08:41:06;;;;;;;31.67;27.77;;;10.60;99.90;;;;;;5009747;28;20265;-65
2021/05/01 08:43:32;;;;;;;31.63;27.50;;;10.60;99.90;;;;;;5007296;28;20434;-66
2021/05/01 08:45:59;;;;;;;31.37;26.60;;;10.40;99.90;;;;;;5009591;28;20465;-66
2021/05/01 08:48:26;;;;;;;33.17;28.60;;;10.40;99.90;;;;;;5006521;28;20449;-66
2021/05/01 08:50:59;;;;;;;31.83;28.43;;;10.60;99.90;;;;;;4999252;28;20464;-66
2021/05/01 08:53:27;;;;;;;32.70;27.63;;;10.80;99.90;;;;;;5009046;28;20460;-65
2021/05/01 08:55:53;;;;;;;33.30;29.57;;;10.80;99.90;;;;;;5009178;28;20805;-66
2021/05/01 08:58:19;;;;;;;33.50;27.40;;;10.70;99.90;;;;;;5008537;28;20434;-66
2021/05/01 09:00:47;;;;;;;32.27;27.67;;;10.70;99.90;;;;;;5008950;28;20186;-67
2021/05/01 09:03:14;;;;;;;36.93;30.23;;;10.90;99.90;;;;;;5010185;28;20179;-66
2021/05/01 09:05:41;;;;;;;30.73;27.63;;;11.00;99.90;;;;;;4999688;28;20477;-65
2021/05/01 09:08:09;;;;;;;30.53;26.50;;;11.30;99.90;;;;;;5013124;28;20433;-66
2021/05/01 09:10:49;;;;;;;25.73;23.03;;;11.60;99.90;;;;;;5013496;28;20444;-66
2021/05/01 09:13:25;;;;;;;29.50;24.70;;;11.80;99.90;;;;;;5009263;28;20941;-65
2021/05/01 09:16:01;;;;;;;26.33;23.67;;;12.20;99.90;;;;;;5013456;28;20455;-66
2021/05/01 09:18:42;;;;;;;25.90;23.17;;;12.20;99.90;;;;;;5013405;28;20947;-66
2021/05/01 09:21:22;;;;;;;24.50;22.10;;;12.50;99.90;;;;;;5013285;28;20444;-67
2021/05/01 09:23:47;;;;;;;26.73;23.80;;;12.70;99.90;;;;;;5013797;28;20437;-66
2021/05/01 09:26:13;;;;;;;25.00;22.30;;;12.50;99.90;;;;;;5013154;28;20990;-67
2021/05/01 09:28:44;;;;;;;26.17;23.40;;;12.40;99.90;;;;;;5009661;28;20214;-66
2021/05/01 09:31:16;;;;;;;27.00;24.20;;;12.30;99.90;;;;;;5006478;28;20976;-65
2021/05/01 09:33:43;;;;;;;28.47;24.53;;;12.30;99.90;;;;;;5012593;28;20432;-66
2021/05/01 09:36:13;;;;;;;28.37;25.10;;;12.30;99.90;;;;;;5012853;28;20461;-66
2021/05/01 09:38:46;;;;;;;25.00;22.07;;;12.20;99.90;;;;;;5006892;28;20437;-66
2021/05/01 09:41:19;;;;;;;28.57;24.50;;;12.20;99.90;;;;;;5012484;28;20433;-66
2021/05/01 09:44:18;;;;;;;25.10;21.80;;;12.10;99.90;;;;;;5013635;28;20525;-66
2021/05/01 09:46:49;;;;;;;28.50;25.30;;;12.10;99.90;;;;;;5013035;28;20849;-66
2021/05/01 09:49:24;;;;;;;25.93;23.10;;;12.30;99.90;;;;;;5010765;28;20457;-65
2021/05/01 09:51:59;;;;;;;26.67;23.23;;;12.10;99.90;;;;;;5014695;28;20430;-66
2021/05/01 09:54:45;;;;;;;26.87;24.07;;;12.30;99.90;;;;;;5011584;28;20454;-66
2021/05/01 09:57:12;;;;;;;24.60;22.07;;;12.60;99.90;;;;;;5012491;28;20429;-65
2021/05/01 09:59:43;;;;;;;28.27;23.40;;;12.70;99.90;;;;;;5012684;28;21014;-65
2021/05/01 10:02:11;;;;;;;24.87;22.43;;;13.00;99.90;;;;;;5013204;28;20472;-66
2021/05/01 10:04:38;;;;;;;26.20;23.53;;;13.40;99.90;;;;;;5010383;28;20460;-65
2021/05/01 10:07:09;;;;;;;30.30;27.13;;;13.80;99.90;;;;;;5011854;28;20442;-65
2021/05/01 10:09:39;;;;;;;27.07;24.37;;;13.90;99.90;;;;;;5012752;28;20457;-66
2021/05/01 10:12:14;;;;;;;26.63;24.07;;;14.00;99.90;;;;;;5012987;28;20931;-67
2021/05/01 10:14:54;;;;;;;24.47;21.87;;;14.20;99.90;;;;;;5012562;28;20556;-66
2021/05/01 10:17:22;;;;;;;25.43;22.83;;;14.30;99.90;;;;;;5012351;28;20473;-65
2021/05/01 10:19:53;;;;;;;22.80;20.70;;;14.10;99.90;;;;;;5012308;28;20433;-66
2021/05/01 10:22:43;;;;;;;23.20;20.73;;;14.40;99.90;;;;;;5011650;28;20433;-66
2021/05/01 10:25:20;;;;;;;22.93;20.73;;;14.30;99.90;;;;;;5012465;28;20975;-66
2021/05/01 10:27:55;;;;;;;27.40;23.10;;;14.10;99.90;;;;;;5011486;28;20496;-65
2021/05/01 10:30:32;;;;;;;21.70;19.47;;;14.10;99.90;;;;;;5011941;28;20452;-66
2021/05/01 10:33:30;;;;;;;23.53;21.03;;;14.10;99.90;;;;;;5014903;28;20992;-66
2021/05/01 10:36:11;;;;;;;25.10;22.50;;;13.90;99.90;;;;;;5014988;28;20456;-66
2021/05/01 10:38:38;;;;;;;23.10;20.80;;;14.00;99.90;;;;;;5015294;28;20818;-68
2021/05/01 10:41:06;;;;;;;22.43;20.27;;;14.10;99.90;;;;;;5007610;28;20601;-66
2021/05/01 10:43:39;;;;;;;26.20;23.57;;;14.30;99.90;;;;;;5012417;28;20973;-66
2021/05/01 10:46:11;;;;;;;27.17;24.43;;;14.40;99.90;;;;;;5012690;28;20878;-66
2021/05/01 10:48:46;;;;;;;26.60;22.90;;;14.00;99.90;;;;;;5012556;28;20461;-66
2021/05/01 10:51:13;;;;;;;26.50;23.63;;;13.90;99.90;;;;;;5011766;28;20787;-66
2021/05/01 10:53:39;;;;;;;28.70;25.60;;;13.70;99.90;;;;;;5011643;28;20461;-66
2021/05/01 10:56:07;;;;;;;27.43;24.80;;;13.40;99.90;;;;;;5012050;28;20885;-65
2021/05/01 10:58:39;;;;;;;28.50;25.70;;;13.40;99.90;;;;;;5011518;28;20487;-66
2021/05/01 11:01:26;;;;;;;27.43;24.50;;;13.10;99.90;;;;;;5011411;28;20472;-65
2021/05/01 11:03:56;;;;;;;28.53;25.63;;;12.80;99.90;;;;;;4993863;28;20920;-66
2021/05/01 11:06:25;;;;;;;28.87;25.77;;;13.00;99.90;;;;;;5010944;28;20457;-66
2021/05/01 11:09:03;;;;;;;33.30;25.37;;;13.20;99.90;;;;;;5010516;28;20720;-66
2021/05/01 11:11:31;;;;;;;24.43;21.93;;;13.40;99.90;;;;;;5011366;28;20549;-67
2021/05/01 11:14:04;;;;;;;29.33;26.13;;;13.60;99.90;;;;;;5011913;28;20433;-66
2021/05/01 11:16:41;;;;;;;27.97;24.97;;;13.70;99.90;;;;;;5011627;28;20437;-68
2021/05/01 11:19:08;;;;;;;30.60;27.53;;;13.80;99.90;;;;;;5011782;28;20449;-67
2021/05/01 11:21:35;;;;;;;33.83;28.20;;;14.00;99.90;;;;;;5004121;28;20452;-68
2021/05/01 11:24:02;;;;;;;28.93;25.13;;;14.10;99.90;;;;;;5011514;28;20444;-67
2021/05/01 11:26:28;;;;;;;29.43;26.33;;;13.90;99.90;;;;;;5011071;28;20448;-67
2021/05/01 11:28:54;;;;;;;31.30;28.13;;;13.70;99.90;;;;;;5002789;28;20462;-67
2021/05/01 11:31:20;;;;;;;30.10;27.00;;;13.70;99.90;;;;;;5010289;28;20617;-67
2021/05/01 11:33:46;;;;;;;30.93;27.87;;;13.80;99.90;;;;;;5011523;28;20452;-66
2021/05/01 11:36:16;;;;;;;29.53;26.53;;;13.70;99.90;;;;;;5017312;28;20458;-67
2021/05/01 11:38:44;;;;;;;32.87;29.67;;;13.60;99.90;;;;;;5011546;28;20818;-67
2021/05/01 11:41:11;;;;;;;29.83;26.77;;;13.60;99.90;;;;;;5013706;28;20448;-72
2021/05/01 11:43:39;;;;;;;32.40;29.20;;;13.80;99.90;;;;;;5021093;28;20453;-67
2021/05/01 11:46:26;;;;;;;31.57;28.37;;;13.80;99.90;;;;;;5011644;28;20992;-67
2021/05/01 11:49:03;;;;;;;29.87;26.87;;;13.70;99.90;;;;;;5017045;28;20885;-66
2021/05/01 11:51:54;;;;;;;30.50;26.07;;;13.90;99.90;;;;;;5015707;28;20879;-66
2021/05/01 11:54:50;;;;;;;29.93;25.77;;;14.30;99.90;;;;;;5001333;28;20458;-66
2021/05/01 11:57:30;;;;;;;31.30;28.10;;;14.60;99.90;;;;;;5011112;28;20432;-67
2021/05/01 11:59:59;;;;;;;29.17;26.37;;;14.20;99.90;;;;;;5006630;28;20446;-67
2021/05/01 12:02:45;;;;;;;30.07;26.87;;;14.00;99.90;;;;;;5011027;28;20473;-67
2021/05/01 12:05:19;;;;;;;29.77;26.60;;;13.90;99.90;;;;;;5010552;28;20508;-67
2021/05/01 12:08:08;;;;;;;31.27;28.23;;;14.20;99.90;;;;;;5011014;28;20923;-67
2021/05/01 12:10:41;;;;;;;30.77;27.63;;;14.40;99.90;;;;;;5010347;28;20449;-67
2021/05/01 12:13:35;;;;;;;29.07;26.07;;;14.70;99.90;;;;;;5011160;28;20839;-67
2021/05/01 12:16:02;;;;;;;28.73;25.87;;;14.30;99.90;;;;;;5010622;28;20484;-67
2021/05/01 12:18:44;;;;;;;31.10;27.90;;;14.30;99.90;;;;;;5015998;28;20438;-67
2021/05/01 12:21:24;;;;;;;27.90;25.13;;;14.20;99.90;;;;;;5009972;28;20433;-66
2021/05/01 12:23:51;;;;;;;33.77;30.20;;;14.10;99.90;;;;;;5004534;28;20433;-67
2021/05/01 12:26:32;;;;;;;28.30;25.43;;;14.10;99.90;;;;;;5001091;28;20457;-67
2021/05/01 12:29:17;;;;;;;29.80;26.63;;;14.10;99.90;;;;;;5009388;28;20456;-67
2021/05/01 12:31:43;;;;;;;30.83;27.80;;;14.20;99.90;;;;;;5011967;28;20428;-67
2021/05/01 12:34:08;;;;;;;28.83;25.83;;;14.00;99.90;;;;;;5013523;28;20517;-67
2021/05/01 12:36:40;;;;;;;30.87;27.77;;;13.80;99.90;;;;;;5002450;28;20430;-67
2021/05/01 12:39:07;;;;;;;31.70;28.53;;;13.80;99.90;;;;;;5010297;28;20182;-67
2021/05/01 12:41:35;;;;;;;31.87;28.73;;;13.70;99.90;;;;;;5013802;28;20470;-67